Dixon, Iowa
Current Conditions -  °F | °C
As of 12:52 AM on Saturday 25 Oct 2014 (Local Time) from KDVN Reporting Station
Moderate Fog Moderate Fog  
Wind Chill: 51°   Ceiling: 200
Heat Index: 51°   Visibility: 0.25mi
Dew Point: 50°   Wind: 7mph
Humidity: 96%   Direction: 250°WSW
Pressure: 29.95"   Gusts: NA
Location:  41.74°N, 90.78°W
Report Text: KDVN 250552Z AUTO 25006KT 1/4SM FG VV002 11/10 A2995 RMK AO2 SLP141 T01060100 10183 20106 402060044 50001 TSNO
Loading
Personal Weather Stations






























Interactive Weather Map
Tropical Storm Tracking
New forecast layout! Learn more

10-Day Weather Forecast

Advertisements
Track Severe Weather on mobile